Portada
METAR-TAF:

METAR-TAF

Aeropuertos :

Aeropuerto de Sanikiluaq

Sanikiluaq, Nunavut, Canadá

latitud: 56-32N, longitud: 079-15W, altitud: 32 m

Observación

El informe se hizo hace 3 horas y 13 minutos, a las 23:00 UTC
Viento 30 kt del sur
Temperatura -9°C
Humedad 92%
Presión 1012 hPa
Visibilidad: 6.4 km
Cielo cubierto a una altura de 2000 ft
poca nieve, Ventisca alta de nieve

METAR: CYSK 122300Z 18030KT 4SM -SN BLSN OVC020 M09/M10 A2987 RMK SC8 LAST OBS/NEXT 131300UTC SLP120

Hora: 21:13 (02:13 UTC)


TAF: falta

Observaciones y pronósticos meteorológicos de más de 4000 aeropuertos (mensajes METAR y TAF).

Los puntos amarillos y rojos representan las estaciones disponibles.

Ponga el ratón en el punto deseado para ver el nombre de la estación.

Haga clic para ver las observaciones y los pronósticos meteorológicos.

Para cambiar el mapa : haga clic en los botones verdes con una cruz de color negro para hacer un zoom, en el botón verde con un guión para alejar o en las flechas verdes para mapas adyacentes.


METAR-TAF: